createdAt,value
2019-02-07T00:00:10.177Z,10.80
2019-02-07T00:03:13.441Z,10.80
2019-02-07T00:06:14.966Z,10.70
2019-02-07T00:09:16.749Z,10.70
2019-02-07T00:12:18.637Z,10.70
2019-02-07T00:15:20.470Z,10.60
2019-02-07T00:18:22.011Z,10.60
2019-02-07T00:21:23.483Z,10.60
2019-02-07T00:24:25.038Z,10.50
2019-02-07T00:27:26.507Z,10.50
2019-02-07T00:30:28.022Z,10.40
2019-02-07T00:33:29.451Z,10.40
2019-02-07T00:36:30.911Z,10.40
2019-02-07T00:39:32.298Z,10.40
2019-02-07T00:42:33.732Z,10.30
2019-02-07T00:45:35.736Z,10.30
2019-02-07T00:48:37.955Z,10.20
2019-02-07T00:51:39.591Z,10.20
2019-02-07T00:54:40.972Z,10.10
2019-02-07T00:57:42.438Z,10.10
2019-02-07T01:00:43.925Z,10.10
2019-02-07T01:03:45.345Z,10.00
2019-02-07T01:06:46.722Z,10.00
2019-02-07T01:09:48.602Z,9.90
2019-02-07T01:12:50.232Z,9.90
2019-02-07T01:15:51.708Z,9.90
2019-02-07T01:18:53.365Z,9.90
2019-02-07T01:21:54.746Z,9.90
2019-02-07T01:24:57.204Z,9.80
2019-02-07T01:27:58.634Z,9.80
2019-02-07T01:31:00.012Z,9.70
2019-02-07T01:34:01.566Z,9.70
2019-02-07T01:37:02.922Z,9.70
2019-02-07T01:40:05.474Z,9.60
2019-02-07T01:43:08.744Z,9.60
2019-02-07T01:46:10.168Z,9.60
2019-02-07T01:49:11.673Z,9.50
2019-02-07T01:52:13.427Z,9.50
2019-02-07T01:55:15.696Z,9.40
2019-02-07T01:58:17.253Z,9.40
2019-02-07T02:01:18.733Z,9.40
2019-02-07T02:04:20.176Z,9.30
2019-02-07T02:07:21.713Z,9.30
2019-02-07T02:10:26.007Z,9.30
2019-02-07T02:13:27.379Z,9.20
2019-02-07T02:16:28.765Z,9.20
2019-02-07T02:19:30.311Z,9.20
2019-02-07T02:22:31.759Z,9.10
2019-02-07T02:25:33.706Z,9.10
2019-02-07T02:28:35.172Z,9.10
2019-02-07T02:31:36.607Z,9.10
2019-02-07T02:34:38.097Z,9.00
2019-02-07T02:37:39.524Z,9.00
2019-02-07T02:40:40.942Z,9.00
2019-02-07T02:43:42.491Z,8.90
2019-02-07T02:46:43.885Z,8.90
2019-02-07T02:49:45.774Z,8.90
2019-02-07T02:52:47.798Z,8.90
2019-02-07T02:55:50.248Z,8.90
2019-02-07T02:58:52.182Z,8.80
2019-02-07T03:02:02.244Z,8.80
2019-02-07T03:05:22.678Z,8.80
2019-02-07T03:08:40.408Z,8.80
2019-02-07T03:11:59.587Z,8.70
2019-02-07T03:15:28.914Z,8.70
2019-02-07T03:18:58.590Z,8.70
2019-02-07T03:22:21.748Z,8.60
2019-02-07T03:25:41.025Z,8.60
2019-02-07T03:29:04.775Z,8.50
2019-02-07T03:32:31.828Z,8.60
2019-02-07T03:36:02.915Z,8.50
2019-02-07T03:39:25.846Z,8.50
2019-02-07T03:42:46.739Z,8.40
2019-02-07T03:46:03.095Z,8.40
2019-02-07T03:49:15.172Z,8.40
2019-02-07T03:52:51.027Z,8.40
2019-02-07T03:56:10.447Z,8.40
2019-02-07T03:59:33.929Z,8.30
2019-02-07T04:02:53.291Z,8.30
2019-02-07T04:06:18.331Z,8.30
2019-02-07T04:09:39.220Z,8.30
2019-02-07T04:13:05.512Z,8.20
2019-02-07T04:16:15.981Z,8.20
2019-02-07T04:19:45.489Z,8.20
2019-02-07T04:23:02.471Z,8.20
2019-02-07T04:26:38.737Z,8.10
2019-02-07T04:30:14.307Z,8.10
2019-02-07T04:33:33.411Z,8.10
2019-02-07T04:36:41.608Z,8.00
2019-02-07T04:40:17.069Z,8.00
2019-02-07T04:43:38.300Z,8.00
2019-02-07T04:46:58.787Z,8.00
2019-02-07T04:50:27.984Z,8.00
2019-02-07T04:53:57.386Z,7.90
2019-02-07T04:57:24.068Z,7.90
2019-02-07T05:00:43.035Z,7.90
2019-02-07T05:04:12.220Z,7.90
2019-02-07T05:07:31.606Z,7.80
2019-02-07T05:10:51.747Z,7.80
2019-02-07T05:14:13.166Z,7.80
2019-02-07T05:17:27.725Z,7.70
2019-02-07T05:21:00.309Z,7.70
2019-02-07T05:24:36.303Z,7.70
2019-02-07T05:27:56.655Z,7.70
2019-02-07T05:31:20.089Z,7.70
2019-02-07T05:34:39.424Z,7.60
2019-02-07T05:38:05.628Z,7.60
2019-02-07T05:41:22.785Z,7.60
2019-02-07T05:44:52.293Z,7.60
2019-02-07T05:48:11.423Z,7.50
2019-02-07T05:51:34.580Z,7.50
2019-02-07T05:55:10.766Z,7.50
2019-02-07T05:58:29.684Z,7.50
2019-02-07T06:01:47.797Z,7.50
2019-02-07T06:05:06.917Z,7.50
2019-02-07T06:08:25.761Z,7.40
2019-02-07T06:11:48.944Z,7.40
2019-02-07T06:15:10.371Z,7.40
2019-02-07T06:18:29.949Z,7.40
2019-02-07T06:21:49.775Z,7.40
2019-02-07T06:25:16.136Z,7.40
2019-02-07T06:28:40.676Z,7.30
2019-02-07T06:32:04.208Z,7.30
2019-02-07T06:35:17.844Z,7.30
2019-02-07T06:38:36.699Z,7.30
2019-02-07T06:41:56.284Z,7.30
2019-02-07T06:45:15.311Z,7.30
2019-02-07T06:48:48.023Z,7.30
2019-02-07T06:52:07.207Z,7.30
2019-02-07T06:55:23.809Z,7.20
2019-02-07T06:58:43.293Z,7.20
2019-02-07T07:02:03.671Z,7.20
2019-02-07T07:05:28.068Z,7.20
2019-02-07T07:08:57.278Z,7.20
2019-02-07T07:12:06.624Z,7.20
2019-02-07T07:15:47.125Z,7.20
2019-02-07T07:19:06.255Z,7.20
2019-02-07T07:22:26.628Z,7.20
2019-02-07T07:25:55.962Z,7.20
2019-02-07T07:29:22.608Z,7.20
2019-02-07T07:32:50.865Z,7.20
2019-02-07T07:36:14.215Z,7.20
2019-02-07T07:39:28.859Z,7.20
2019-02-07T07:42:48.115Z,7.20
2019-02-07T07:46:08.637Z,7.20
2019-02-07T07:49:39.854Z,7.20
2019-02-07T07:53:00.612Z,7.20
2019-02-07T07:56:19.596Z,7.20
2019-02-07T07:59:48.045Z,7.20
2019-02-07T08:03:16.645Z,7.20
2019-02-07T08:06:37.075Z,7.20
2019-02-07T08:09:57.498Z,7.20
2019-02-07T08:13:19.191Z,7.20
2019-02-07T08:16:38.617Z,7.20
2019-02-07T08:20:03.551Z,7.20
2019-02-07T08:23:27.518Z,7.20
2019-02-07T08:26:57.275Z,7.30
2019-02-07T08:30:16.711Z,7.30
2019-02-07T08:33:35.991Z,7.30
2019-02-07T08:37:05.850Z,7.30
2019-02-07T08:40:29.116Z,7.30
2019-02-07T08:43:47.911Z,7.30
2019-02-07T08:47:11.191Z,7.30
2019-02-07T08:50:36.125Z,7.30
2019-02-07T08:54:09.062Z,7.30
2019-02-07T08:57:25.907Z,7.40
2019-02-07T09:00:37.715Z,7.40
2019-02-07T09:03:58.149Z,7.40
2019-02-07T09:07:20.493Z,7.40
2019-02-07T09:10:53.459Z,7.40
2019-02-07T09:14:12.614Z,7.40
2019-02-07T09:17:21.823Z,7.40
2019-02-07T09:20:41.097Z,7.40
2019-02-07T09:24:07.412Z,7.40
2019-02-07T09:27:26.372Z,7.50
2019-02-07T09:30:45.780Z,7.50
2019-02-07T09:34:24.678Z,7.40
2019-02-07T09:37:51.211Z,7.50
2019-02-07T09:41:11.861Z,7.50
2019-02-07T09:44:35.253Z,7.40
2019-02-07T09:47:54.272Z,7.50
2019-02-07T09:51:07.942Z,7.50
2019-02-07T09:54:27.235Z,7.50
2019-02-07T09:57:47.813Z,7.50
2019-02-07T10:00:57.477Z,7.50
2019-02-07T10:04:19.487Z,7.50
2019-02-07T10:07:42.872Z,7.50
2019-02-07T10:10:56.955Z,7.60
2019-02-07T10:14:16.778Z,7.60
2019-02-07T10:17:36.063Z,7.60
2019-02-07T10:20:56.534Z,7.60
2019-02-07T10:24:16.401Z,7.60
2019-02-07T10:27:42.951Z,7.60
2019-02-07T10:30:58.949Z,7.60
2019-02-07T10:34:11.944Z,7.60
2019-02-07T10:37:50.732Z,7.60
2019-02-07T10:41:13.994Z,7.60
2019-02-07T10:44:35.093Z,7.60
2019-02-07T10:47:53.983Z,7.60
2019-02-07T10:51:15.568Z,7.70
2019-02-07T10:54:51.151Z,7.70
2019-02-07T10:58:21.118Z,7.70
2019-02-07T11:01:40.326Z,7.80
2019-02-07T11:05:01.033Z,7.80
2019-02-07T11:08:21.899Z,7.80
2019-02-07T11:11:43.883Z,7.80
2019-02-07T11:14:59.693Z,7.80
2019-02-07T11:18:23.249Z,7.80
2019-02-07T11:21:43.810Z,7.80
2019-02-07T11:25:25.109Z,7.80
2019-02-07T11:29:04.121Z,7.90
2019-02-07T11:32:24.825Z,7.90
2019-02-07T11:35:48.210Z,8.00
2019-02-07T11:39:11.709Z,8.00
2019-02-07T11:42:31.200Z,8.00
2019-02-07T11:45:44.113Z,8.10
2019-02-07T11:49:06.841Z,8.10
2019-02-07T11:52:29.674Z,8.20
2019-02-07T11:55:41.469Z,8.20
2019-02-07T11:59:17.040Z,8.20
2019-02-07T12:02:38.139Z,8.20
2019-02-07T12:05:47.525Z,8.30
2019-02-07T12:09:08.705Z,8.30
2019-02-07T12:12:29.305Z,8.30
2019-02-07T12:15:50.141Z,8.40
2019-02-07T12:19:17.728Z,8.40
2019-02-07T12:22:46.746Z,8.50
2019-02-07T12:26:13.465Z,8.50
2019-02-07T12:29:37.659Z,8.60
2019-02-07T12:33:13.797Z,8.60
2019-02-07T12:36:33.358Z,8.70
2019-02-07T12:39:52.959Z,8.80
2019-02-07T12:43:21.487Z,8.90
2019-02-07T12:46:42.327Z,9.00
2019-02-07T12:50:08.235Z,9.10
2019-02-07T12:53:27.323Z,9.10
2019-02-07T12:56:46.093Z,9.20
2019-02-07T13:00:08.878Z,9.20
2019-02-07T13:03:38.006Z,9.20
2019-02-07T13:07:18.628Z,9.30
2019-02-07T13:10:45.669Z,9.30
2019-02-07T13:14:05.662Z,9.30
2019-02-07T13:17:24.827Z,9.30
2019-02-07T13:20:47.904Z,9.40
2019-02-07T13:24:23.787Z,9.30
2019-02-07T13:27:41.261Z,9.30
2019-02-07T13:31:04.976Z,9.30
2019-02-07T13:34:24.642Z,9.30
2019-02-07T13:37:57.303Z,9.40
2019-02-07T13:41:20.481Z,9.40
2019-02-07T13:44:43.852Z,9.40
2019-02-07T13:47:54.270Z,9.50
2019-02-07T13:51:29.739Z,9.40
2019-02-07T13:54:49.725Z,9.40
2019-02-07T13:58:16.174Z,9.50
2019-02-07T14:01:48.699Z,9.50
2019-02-07T14:05:15.002Z,9.40
2019-02-07T14:08:47.570Z,9.40
2019-02-07T14:12:06.685Z,9.40
2019-02-07T14:15:28.413Z,9.40
2019-02-07T14:18:55.047Z,9.40
2019-02-07T14:22:18.306Z,9.40
2019-02-07T14:25:45.833Z,9.40
2019-02-07T14:29:15.468Z,9.40
2019-02-07T14:32:38.909Z,9.40
2019-02-07T14:36:11.404Z,9.40
2019-02-07T14:39:34.994Z,9.40
2019-02-07T14:43:04.677Z,9.40
2019-02-07T14:46:37.411Z,9.40
2019-02-07T14:49:38.863Z,9.40
2019-02-07T14:52:40.257Z,9.40
2019-02-07T14:55:41.684Z,9.40
2019-02-07T14:58:43.171Z,9.40
2019-02-07T15:01:44.591Z,9.40
2019-02-07T15:04:46.046Z,9.40
2019-02-07T15:07:47.463Z,9.40
2019-02-07T15:10:49.409Z,9.40
2019-02-07T15:13:50.831Z,9.40
2019-02-07T15:16:52.321Z,9.40
2019-02-07T15:19:53.924Z,9.40
2019-02-07T15:22:55.331Z,9.40
2019-02-07T15:25:56.883Z,9.40
2019-02-07T15:28:58.398Z,9.40
2019-02-07T15:32:00.075Z,9.40
2019-02-07T15:35:01.971Z,9.40
2019-02-07T15:38:03.544Z,9.40
2019-02-07T15:41:06.898Z,9.40
2019-02-07T15:44:08.648Z,9.40
2019-02-07T15:47:10.397Z,9.40
2019-02-07T15:50:21.413Z,9.40
2019-02-07T15:53:22.984Z,9.40
2019-02-07T15:56:24.496Z,9.40
2019-02-07T15:59:38.124Z,9.40
2019-02-07T16:02:43.698Z,9.40
2019-02-07T16:05:48.347Z,9.40
2019-02-07T16:08:50.349Z,9.40
2019-02-07T16:11:52.030Z,9.40
2019-02-07T16:14:54.560Z,9.90
2019-02-07T16:17:56.576Z,9.80
2019-02-07T16:20:58.330Z,9.70
2019-02-07T16:24:00.117Z,9.60
2019-02-07T16:27:01.647Z,9.50
2019-02-07T16:30:03.197Z,9.50
2019-02-07T16:33:06.338Z,9.40
2019-02-07T16:36:07.915Z,9.40
2019-02-07T16:39:10.977Z,9.40
2019-02-07T16:42:12.630Z,9.40
2019-02-07T16:45:16.744Z,9.40
2019-02-07T16:48:18.373Z,9.30
2019-02-07T16:51:19.882Z,9.30
2019-02-07T16:54:21.601Z,9.30
2019-02-07T16:57:23.116Z,9.20
2019-02-07T17:00:26.788Z,9.20
2019-02-07T17:03:28.636Z,9.20
2019-02-07T17:06:30.134Z,9.20
2019-02-07T17:09:36.794Z,9.20
2019-02-07T17:12:38.406Z,9.20
2019-02-07T17:15:39.995Z,9.10
2019-02-07T17:18:41.477Z,9.10
2019-02-07T17:21:43.343Z,9.10
2019-02-07T17:24:45.171Z,9.10
2019-02-07T17:27:46.741Z,9.10
2019-02-07T17:30:48.342Z,9.10
2019-02-07T17:33:50.159Z,9.00
2019-02-07T17:36:51.863Z,9.10
2019-02-07T17:39:56.599Z,9.00
2019-02-07T17:42:58.262Z,9.00
2019-02-07T17:46:00.596Z,9.00
2019-02-07T17:49:03.268Z,9.00
2019-02-07T17:52:04.774Z,9.00
2019-02-07T17:55:10.177Z,9.00
2019-02-07T17:58:12.092Z,9.00
2019-02-07T18:01:13.701Z,9.00
2019-02-07T18:04:15.240Z,8.90
2019-02-07T18:07:16.822Z,8.90
2019-02-07T18:10:19.172Z,8.90
2019-02-07T18:13:21.038Z,8.90
2019-02-07T18:16:22.657Z,8.90
2019-02-07T18:19:24.523Z,8.90
2019-02-07T18:22:26.298Z,8.90
2019-02-07T18:25:27.833Z,8.90
2019-02-07T18:28:29.449Z,8.80
2019-02-07T18:31:31.002Z,8.80
2019-02-07T18:34:32.523Z,8.80
2019-02-07T18:37:34.303Z,8.80
2019-02-07T18:40:35.914Z,8.80
2019-02-07T18:43:37.669Z,8.70
2019-02-07T18:46:39.477Z,8.70
2019-02-07T18:49:41.008Z,8.70
2019-02-07T18:52:42.650Z,8.70
2019-02-07T18:55:44.196Z,8.60
2019-02-07T18:58:46.222Z,8.60
2019-02-07T19:01:48.164Z,8.60
2019-02-07T19:04:50.168Z,8.60
2019-02-07T19:07:51.755Z,8.60
2019-02-07T19:10:53.430Z,8.60
2019-02-07T19:13:55.143Z,8.60
2019-02-07T19:16:57.168Z,8.50
2019-02-07T19:19:58.879Z,8.60
2019-02-07T19:23:00.415Z,8.50
2019-02-07T19:26:02.229Z,8.50
2019-02-07T19:29:04.321Z,8.50
2019-02-07T19:32:05.857Z,8.50
2019-02-07T19:35:08.609Z,8.40
2019-02-07T19:38:10.210Z,8.50
2019-02-07T19:41:12.169Z,8.40
2019-02-07T19:44:13.907Z,8.40
2019-02-07T19:47:15.471Z,8.40
2019-02-07T19:50:22.873Z,8.40
2019-02-07T19:53:24.530Z,8.40
2019-02-07T19:56:26.455Z,8.40
2019-02-07T19:59:28.020Z,8.30
2019-02-07T20:02:29.632Z,8.30
2019-02-07T20:05:31.686Z,8.30
2019-02-07T20:08:33.357Z,8.30
2019-02-07T20:11:35.037Z,8.30
2019-02-07T20:14:36.831Z,8.30
2019-02-07T20:17:38.344Z,8.30
2019-02-07T20:20:40.643Z,8.20
2019-02-07T20:23:42.293Z,8.20
2019-02-07T20:26:43.837Z,8.20
2019-02-07T20:29:45.396Z,8.20
2019-02-07T20:32:47.262Z,8.20
2019-02-07T20:35:48.881Z,8.20
2019-02-07T20:38:50.938Z,8.20
2019-02-07T20:41:52.707Z,8.10
2019-02-07T20:44:54.796Z,8.10
2019-02-07T20:47:56.529Z,8.10
2019-02-07T20:50:58.068Z,8.10
2019-02-07T20:54:00.186Z,8.10
2019-02-07T20:57:01.715Z,8.10
2019-02-07T21:00:03.461Z,8.10
2019-02-07T21:03:05.946Z,8.00
2019-02-07T21:06:07.652Z,8.00
2019-02-07T21:09:10.903Z,8.00
2019-02-07T21:12:12.606Z,8.00
2019-02-07T21:15:18.812Z,8.00
2019-02-07T21:18:20.123Z,8.00
2019-02-07T21:21:21.679Z,8.00
2019-02-07T21:24:23.220Z,7.90
2019-02-07T21:27:24.796Z,7.90
2019-02-07T21:30:29.558Z,7.90
2019-02-07T21:33:31.108Z,7.90
2019-02-07T21:36:32.727Z,7.90
2019-02-07T21:39:34.246Z,7.90
2019-02-07T21:42:36.295Z,7.90
2019-02-07T21:45:37.716Z,7.80
2019-02-07T21:48:39.297Z,7.80
2019-02-07T21:51:40.849Z,7.80
2019-02-07T21:54:42.472Z,7.80
2019-02-07T21:57:44.194Z,7.80
2019-02-07T22:00:46.945Z,7.80
2019-02-07T22:03:48.617Z,7.80
2019-02-07T22:06:50.634Z,7.80
2019-02-07T22:09:52.262Z,7.80
2019-02-07T22:12:53.694Z,7.80
2019-02-07T22:15:55.605Z,7.80
2019-02-07T22:18:57.106Z,7.80
2019-02-07T22:21:59.771Z,7.70
2019-02-07T22:25:01.317Z,7.70
2019-02-07T22:28:03.049Z,7.70
2019-02-07T22:31:04.694Z,7.70
2019-02-07T22:34:06.139Z,7.70
2019-02-07T22:37:07.714Z,7.70
2019-02-07T22:40:13.592Z,7.70
2019-02-07T22:43:15.066Z,7.70
2019-02-07T22:46:16.763Z,7.70
2019-02-07T22:49:18.236Z,7.70
2019-02-07T22:52:19.707Z,7.70
2019-02-07T22:55:21.391Z,7.70
2019-02-07T22:58:23.039Z,7.70
2019-02-07T23:01:48.499Z,7.70
2019-02-07T23:04:50.148Z,7.70
2019-02-07T23:07:51.736Z,7.70
2019-02-07T23:10:53.275Z,7.70
2019-02-07T23:13:54.844Z,7.70
2019-02-07T23:16:56.254Z,7.70
2019-02-07T23:19:57.698Z,7.70
2019-02-07T23:23:05.099Z,7.70
2019-02-07T23:26:02.449Z,7.70
2019-02-07T23:29:03.985Z,7.70
2019-02-07T23:32:06.077Z,7.70
2019-02-07T23:35:07.743Z,7.70
2019-02-07T23:38:09.410Z,7.70
2019-02-07T23:41:13.416Z,7.70
2019-02-07T23:44:14.868Z,7.70
2019-02-07T23:47:16.206Z,7.70
2019-02-07T23:50:18.762Z,7.70
2019-02-07T23:53:20.238Z,7.80
2019-02-07T23:56:22.023Z,7.70
2019-02-07T23:59:23.488Z,7.70
